Time;durP1;ratioP1;P1;durP2;ratioP2;P2;SDS_P1;SDS_P2;PMS_P1;PMS_P2;Temp;Humidity;BMP_temperature;BMP_pressure;BME280_temperature;BME280_humidity;BME280_pressure;Samples;Min_cycle;Max_cycle;Signal;HPM_P1;HPM_P2
2022/10/10 00:01:06;;;;;;;2.85;0.80;;;10.90;99.90;;;;;;5051827;28;20206;-68
2022/10/10 00:03:31;;;;;;;1.05;0.98;;;10.90;99.90;;;;;;5051909;28;20186;-68
2022/10/10 00:05:57;;;;;;;0.60;0.60;;;10.90;99.90;;;;;;5051894;28;20185;-69
2022/10/10 00:08:23;;;;;;;0.55;0.55;;;11.00;99.90;;;;;;5051569;28;20232;-69
2022/10/10 00:10:48;;;;;;;0.60;0.60;;;11.00;99.90;;;;;;5051652;28;20230;-70
2022/10/10 00:13:14;;;;;;;0.60;0.60;;;11.00;99.90;;;;;;5051841;28;20247;-69
2022/10/10 00:15:40;;;;;;;0.50;0.50;;;11.00;99.90;;;;;;5050253;28;20201;-68
2022/10/10 00:18:06;;;;;;;0.50;0.50;;;11.00;99.90;;;;;;5051728;28;20573;-69
2022/10/10 00:20:32;;;;;;;0.60;0.60;;;11.00;99.90;;;;;;5051330;28;20197;-68
2022/10/10 00:22:57;;;;;;;0.60;0.60;;;11.00;99.90;;;;;;5051632;28;20198;-69
2022/10/10 00:25:23;;;;;;;0.93;0.75;;;11.10;99.90;;;;;;5051451;28;20204;-69
2022/10/10 00:27:48;;;;;;;0.68;0.68;;;11.10;99.90;;;;;;5051990;28;20601;-69
2022/10/10 00:30:17;;;;;;;0.60;0.60;;;11.10;99.90;;;;;;5051422;28;20286;-68
2022/10/10 00:32:42;;;;;;;0.50;0.50;;;11.00;99.90;;;;;;5050619;28;20193;-69
2022/10/10 00:35:08;;;;;;;1.10;1.08;;;11.00;99.90;;;;;;5051759;28;20691;-69
2022/10/10 00:37:34;;;;;;;0.60;0.60;;;11.00;99.90;;;;;;5051131;28;20842;-69
2022/10/10 00:40:00;;;;;;;0.70;0.70;;;11.00;99.90;;;;;;5051418;28;20625;-69
2022/10/10 00:42:25;;;;;;;1.05;0.73;;;11.00;99.90;;;;;;5050834;28;20204;-69
2022/10/10 00:45:28;;;;;;;0.50;0.50;;;11.00;99.90;;;;;;5049944;28;20196;-69
2022/10/10 00:48:00;;;;;;;0.50;0.50;;;11.00;99.90;;;;;;5031303;28;20687;-69
2022/10/10 00:50:26;;;;;;;0.57;0.57;;;10.90;99.90;;;;;;5031074;28;20194;-69
2022/10/10 00:52:52;;;;;;;0.50;0.50;;;10.90;99.90;;;;;;5031366;28;20202;-69
2022/10/10 00:55:18;;;;;;;1.05;0.82;;;10.90;99.90;;;;;;5031192;28;20225;-68
2022/10/10 00:57:43;;;;;;;8.68;1.05;;;10.90;99.90;;;;;;5044086;28;20213;-69
2022/10/10 01:00:10;;;;;;;0.40;0.40;;;10.80;99.90;;;;;;5051005;28;20565;-68
2022/10/10 01:02:36;;;;;;;0.47;0.47;;;10.80;99.90;;;;;;5050716;28;20209;-69
2022/10/10 01:05:01;;;;;;;0.70;0.70;;;10.70;99.90;;;;;;5051068;28;20200;-69
2022/10/10 01:07:30;;;;;;;0.55;0.55;;;10.60;99.90;;;;;;5050990;28;20239;-71
2022/10/10 01:10:00;;;;;;;0.40;0.40;;;10.60;99.90;;;;;;5051040;28;20214;-69
2022/10/10 01:12:51;;;;;;;0.60;0.60;;;10.50;99.90;;;;;;5032809;28;20262;-69
2022/10/10 01:15:39;;;;;;;0.70;0.70;;;10.50;99.90;;;;;;5033195;28;20675;-68
2022/10/10 01:18:32;;;;;;;0.70;0.70;;;10.40;99.90;;;;;;5050957;28;20198;-69
2022/10/10 01:21:13;;;;;;;0.57;0.57;;;10.40;99.90;;;;;;5052955;28;20729;-69
2022/10/10 01:23:41;;;;;;;0.50;0.50;;;10.30;99.90;;;;;;5055305;28;20279;-69
2022/10/10 01:26:35;;;;;;;0.60;0.60;;;10.20;99.90;;;;;;5054920;28;20186;-69
2022/10/10 01:29:04;;;;;;;0.50;0.50;;;10.20;99.90;;;;;;5054958;28;20194;-69
2022/10/10 01:31:33;;;;;;;0.50;0.50;;;10.20;99.90;;;;;;5054794;28;20202;-69
2022/10/10 01:34:23;;;;;;;0.93;0.93;;;10.10;99.90;;;;;;5054847;28;20224;-69
2022/10/10 01:37:08;;;;;;;0.60;0.60;;;10.10;99.90;;;;;;5054822;28;20278;-68
2022/10/10 01:39:55;;;;;;;0.60;0.60;;;10.10;99.90;;;;;;5054710;28;20209;-68
2022/10/10 01:42:42;;;;;;;0.52;0.52;;;10.00;99.90;;;;;;5054450;28;20339;-69
2022/10/10 01:45:09;;;;;;;0.60;0.60;;;10.00;99.90;;;;;;5054655;28;20193;-70
2022/10/10 01:47:34;;;;;;;0.80;0.80;;;10.00;99.90;;;;;;5054382;28;20193;-70
2022/10/10 01:50:05;;;;;;;7.97;1.30;;;10.00;99.90;;;;;;5054535;28;20247;-70
2022/10/10 01:52:46;;;;;;;0.60;0.60;;;10.00;99.90;;;;;;5054125;28;20571;-70
2022/10/10 01:55:42;;;;;;;0.50;0.50;;;10.00;99.90;;;;;;5053144;28;20201;-69
2022/10/10 01:58:32;;;;;;;0.60;0.60;;;10.00;99.90;;;;;;5054295;28;20762;-68
2022/10/10 02:01:09;;;;;;;0.70;0.70;;;10.00;99.90;;;;;;5053587;28;20229;-69
2022/10/10 02:03:42;;;;;;;0.98;0.90;;;9.90;99.90;;;;;;5054061;28;20193;-69
2022/10/10 02:06:24;;;;;;;0.50;0.50;;;9.80;99.90;;;;;;5054176;28;20671;-69
2022/10/10 02:08:55;;;;;;;0.63;0.63;;;9.70;99.90;;;;;;5054265;28;20580;-68
2022/10/10 02:11:23;;;;;;;0.60;0.60;;;9.80;99.90;;;;;;5053646;28;20249;-69
2022/10/10 02:13:54;;;;;;;0.55;0.55;;;9.80;99.90;;;;;;5054531;28;20193;-69
2022/10/10 02:16:25;;;;;;;0.60;0.60;;;9.80;99.90;;;;;;5053950;28;20197;-69
2022/10/10 02:18:52;;;;;;;2.38;0.80;;;9.70;99.90;;;;;;5054360;28;20243;-69
2022/10/10 02:21:20;;;;;;;0.50;0.50;;;9.70;99.90;;;;;;5052446;28;20196;-69
2022/10/10 02:23:49;;;;;;;0.60;0.60;;;9.60;99.90;;;;;;5053952;28;20560;-69
2022/10/10 02:26:16;;;;;;;0.50;0.50;;;9.60;99.90;;;;;;5052648;28;20416;-69
2022/10/10 02:29:00;;;;;;;0.80;0.80;;;9.60;99.90;;;;;;5053632;28;20194;-69
2022/10/10 02:32:03;;;;;;;3.03;1.17;;;9.70;99.90;;;;;;5053415;28;20581;-68
2022/10/10 02:34:35;;;;;;;0.60;0.60;;;9.70;99.90;;;;;;5052043;28;20213;-69
2022/10/10 02:37:06;;;;;;;0.90;0.90;;;9.90;99.90;;;;;;5053767;28;20198;-69
2022/10/10 02:39:35;;;;;;;0.60;0.60;;;10.10;99.90;;;;;;5037904;28;20312;-69
2022/10/10 02:42:04;;;;;;;0.60;0.60;;;10.20;99.90;;;;;;5035466;28;20300;-69
2022/10/10 02:44:31;;;;;;;0.85;0.85;;;10.20;99.90;;;;;;5053384;28;20201;-68
2022/10/10 02:46:57;;;;;;;0.60;0.60;;;10.20;99.90;;;;;;5053479;28;20212;-69
2022/10/10 02:49:30;;;;;;;0.50;0.50;;;10.20;99.90;;;;;;5047038;28;20226;-69
2022/10/10 02:51:56;;;;;;;0.52;0.52;;;10.20;99.90;;;;;;5033804;28;20711;-69
2022/10/10 02:54:23;;;;;;;0.63;0.63;;;10.20;99.90;;;;;;5033217;28;20201;-69
2022/10/10 02:56:48;;;;;;;0.60;0.60;;;10.30;99.90;;;;;;5033198;28;20661;-69
2022/10/10 02:59:14;;;;;;;0.63;0.63;;;10.30;99.90;;;;;;5015911;28;20209;-69
2022/10/10 03:01:40;;;;;;;0.50;0.50;;;10.30;99.90;;;;;;5040772;28;20209;-70
2022/10/10 03:04:06;;;;;;;1.90;1.08;;;10.30;99.90;;;;;;5040092;28;20213;-69
2022/10/10 03:06:31;;;;;;;0.63;0.63;;;10.30;99.90;;;;;;5032978;28;20564;-69
2022/10/10 03:08:57;;;;;;;0.60;0.60;;;10.20;99.90;;;;;;5033239;28;20186;-69
2022/10/10 03:11:23;;;;;;;2.45;1.42;;;10.20;99.90;;;;;;5032661;28;20229;-68
2022/10/10 03:13:48;;;;;;;0.98;0.98;;;10.20;99.90;;;;;;5031663;28;20195;-68
2022/10/10 03:16:14;;;;;;;1.05;0.93;;;10.10;99.90;;;;;;5043817;28;20193;-68
2022/10/10 03:18:40;;;;;;;0.75;0.60;;;10.10;99.90;;;;;;5034608;28;20284;-69
2022/10/10 03:21:05;;;;;;;0.70;0.70;;;10.10;99.90;;;;;;5032871;28;20240;-67
2022/10/10 03:23:31;;;;;;;0.57;0.57;;;10.10;99.90;;;;;;5032603;28;20218;-68
2022/10/10 03:25:57;;;;;;;0.50;0.50;;;10.10;99.90;;;;;;5032749;28;20260;-69
2022/10/10 03:28:23;;;;;;;0.57;0.57;;;10.10;99.90;;;;;;5032531;28;20186;-69
2022/10/10 03:30:49;;;;;;;4.13;1.25;;;10.10;99.90;;;;;;5032744;28;20202;-69
2022/10/10 03:33:15;;;;;;;0.60;0.60;;;10.20;99.90;;;;;;5032718;28;20208;-69
2022/10/10 03:35:40;;;;;;;0.88;0.88;;;10.20;99.90;;;;;;5032547;28;20206;-70
2022/10/10 03:38:06;;;;;;;0.60;0.60;;;10.20;99.90;;;;;;5032694;28;20672;-69
2022/10/10 03:40:33;;;;;;;3.55;0.75;;;10.30;99.90;;;;;;5032669;28;20198;-69
2022/10/10 03:42:58;;;;;;;0.60;0.60;;;10.20;99.90;;;;;;5032195;28;20251;-69
2022/10/10 03:45:24;;;;;;;0.50;0.50;;;10.20;99.90;;;;;;5036493;28;20276;-69
2022/10/10 03:47:50;;;;;;;0.50;0.50;;;10.20;99.90;;;;;;5052273;28;20189;-69
2022/10/10 03:50:16;;;;;;;0.60;0.60;;;10.30;99.90;;;;;;5050864;28;20664;-69
2022/10/10 03:52:41;;;;;;;0.60;0.60;;;10.30;99.90;;;;;;5052147;28;20196;-69
2022/10/10 03:55:08;;;;;;;0.70;0.70;;;10.30;99.90;;;;;;5052250;28;20682;-70
2022/10/10 03:57:33;;;;;;;0.60;0.60;;;10.30;99.90;;;;;;5069047;28;20197;-69
2022/10/10 03:59:59;;;;;;;0.50;0.50;;;10.30;99.90;;;;;;5072122;28;20204;-69
2022/10/10 04:02:25;;;;;;;0.60;0.60;;;10.30;99.90;;;;;;5071625;28;20201;-70
2022/10/10 04:04:50;;;;;;;1.35;1.25;;;10.30;99.90;;;;;;5054150;28;20625;-70
2022/10/10 04:07:16;;;;;;;0.50;0.50;;;10.20;99.90;;;;;;5071871;28;20555;-70
2022/10/10 04:09:42;;;;;;;0.88;0.88;;;10.30;99.90;;;;;;5071925;28;20197;-70
2022/10/10 04:12:07;;;;;;;0.50;0.50;;;10.30;99.90;;;;;;5063363;28;20217;-70
2022/10/10 04:14:33;;;;;;;1.85;1.05;;;10.30;99.90;;;;;;5051666;28;20642;-69
2022/10/10 04:17:03;;;;;;;0.50;0.50;;;10.30;99.90;;;;;;5052102;28;20267;-69
2022/10/10 04:19:28;;;;;;;1.00;0.95;;;10.30;99.90;;;;;;5051429;28;20202;-69
2022/10/10 04:21:54;;;;;;;0.90;0.90;;;10.30;99.90;;;;;;5052013;28;20271;-70
2022/10/10 04:24:19;;;;;;;0.68;0.68;;;10.30;99.90;;;;;;5033949;28;20600;-70
2022/10/10 04:26:45;;;;;;;0.60;0.60;;;10.30;99.90;;;;;;5051996;28;20201;-69
2022/10/10 04:29:11;;;;;;;0.50;0.50;;;10.30;99.90;;;;;;5052167;28;20279;-70
2022/10/10 04:31:36;;;;;;;5.15;1.52;;;10.20;99.90;;;;;;5051622;28;20224;-70
2022/10/10 04:34:02;;;;;;;0.60;0.60;;;10.20;99.90;;;;;;5051720;28;20208;-70
2022/10/10 04:36:27;;;;;;;1.10;0.98;;;10.10;99.90;;;;;;5051479;28;20266;-70
2022/10/10 04:38:53;;;;;;;0.73;0.73;;;10.10;99.90;;;;;;5051623;28;20196;-69
2022/10/10 04:41:19;;;;;;;0.60;0.60;;;10.10;99.90;;;;;;5049803;28;20216;-71
2022/10/10 04:43:44;;;;;;;0.93;0.88;;;10.10;99.90;;;;;;5013800;28;20628;-71
2022/10/10 04:46:10;;;;;;;2.55;1.75;;;10.10;99.90;;;;;;5031518;28;20573;-72
2022/10/10 04:48:36;;;;;;;0.60;0.60;;;10.10;99.90;;;;;;5031300;28;20719;-70
2022/10/10 04:51:02;;;;;;;0.60;0.60;;;10.10;99.90;;;;;;5031293;28;20186;-70
2022/10/10 04:53:27;;;;;;;0.77;0.77;;;10.10;99.90;;;;;;5059708;28;20251;-70
2022/10/10 04:55:53;;;;;;;0.70;0.70;;;10.00;99.90;;;;;;5070441;28;20188;-71
2022/10/10 04:58:19;;;;;;;1.08;1.05;;;10.00;99.90;;;;;;5053183;28;20203;-70
2022/10/10 05:00:49;;;;;;;1.15;1.05;;;9.90;99.90;;;;;;5065770;28;20668;-71
2022/10/10 05:03:14;;;;;;;0.50;0.50;;;9.90;99.90;;;;;;5051001;28;20208;-69
2022/10/10 05:05:40;;;;;;;0.60;0.60;;;10.00;99.90;;;;;;5050890;28;20193;-71
2022/10/10 05:08:06;;;;;;;2.47;1.17;;;9.90;99.90;;;;;;5050684;28;20200;-71
2022/10/10 05:10:38;;;;;;;0.85;0.85;;;9.90;99.90;;;;;;5050862;28;20231;-71
2022/10/10 05:13:05;;;;;;;0.68;0.68;;;9.90;99.90;;;;;;5053792;28;20212;-70
2022/10/10 05:15:34;;;;;;;0.70;0.70;;;9.90;99.90;;;;;;5050959;28;20715;-71
2022/10/10 05:18:00;;;;;;;0.70;0.70;;;9.90;99.90;;;;;;5051206;28;20185;-71
2022/10/10 05:20:26;;;;;;;1.40;1.30;;;9.90;99.90;;;;;;5035894;28;20292;-71
2022/10/10 05:22:52;;;;;;;0.60;0.60;;;9.90;99.90;;;;;;5031050;28;20214;-71
2022/10/10 05:25:18;;;;;;;0.80;0.80;;;9.90;99.90;;;;;;5031088;28;20249;-70
2022/10/10 05:27:44;;;;;;;0.50;0.50;;;9.90;99.90;;;;;;5029678;28;20194;-71
2022/10/10 05:30:10;;;;;;;0.60;0.60;;;9.90;99.90;;;;;;5029790;28;20198;-72
2022/10/10 05:32:36;;;;;;;0.45;0.45;;;9.90;99.90;;;;;;5031138;28;20557;-71
2022/10/10 05:35:03;;;;;;;0.50;0.50;;;9.80;99.90;;;;;;5031002;28;20297;-71
2022/10/10 05:37:28;;;;;;;0.60;0.60;;;9.90;99.90;;;;;;5013633;28;20202;-71
2022/10/10 05:39:54;;;;;;;0.80;0.80;;;9.90;99.90;;;;;;5049896;28;20798;-72
2022/10/10 05:42:19;;;;;;;1.15;1.15;;;9.80;99.90;;;;;;5032588;28;20265;-70
2022/10/10 05:44:45;;;;;;;0.60;0.60;;;9.80;99.90;;;;;;5050749;28;20198;-71
2022/10/10 05:47:11;;;;;;;0.60;0.60;;;9.80;99.90;;;;;;5049622;28;20336;-71
2022/10/10 05:49:36;;;;;;;4.30;0.80;;;9.80;99.90;;;;;;5062597;28;20193;-71
2022/10/10 05:52:02;;;;;;;0.45;0.45;;;9.80;99.90;;;;;;5052877;28;20197;-71
2022/10/10 05:54:28;;;;;;;0.50;0.50;;;9.80;99.90;;;;;;5070479;28;20201;-71
2022/10/10 05:56:53;;;;;;;0.55;0.55;;;9.80;99.90;;;;;;5070773;28;20572;-71
2022/10/10 05:59:19;;;;;;;0.60;0.60;;;9.80;99.90;;;;;;5070594;28;20242;-71
2022/10/10 06:01:45;;;;;;;0.50;0.50;;;9.80;99.90;;;;;;5070751;28;20476;-71
2022/10/10 06:04:10;;;;;;;0.60;0.60;;;9.80;99.90;;;;;;5066955;28;20556;-71
2022/10/10 06:06:36;;;;;;;6.00;1.70;;;9.80;99.90;;;;;;5051694;28;20200;-71
2022/10/10 06:09:02;;;;;;;0.50;0.50;;;9.80;99.90;;;;;;5054264;28;20193;-71
2022/10/10 06:11:28;;;;;;;0.60;0.60;;;9.80;99.90;;;;;;5053701;28;20584;-71
2022/10/10 06:13:54;;;;;;;0.68;0.68;;;9.80;99.90;;;;;;5054200;28;20564;-71
2022/10/10 06:16:25;;;;;;;0.52;0.52;;;9.80;99.90;;;;;;5053839;28;20201;-71
2022/10/10 06:18:51;;;;;;;0.70;0.70;;;9.80;99.90;;;;;;5051888;28;20193;-71
2022/10/10 06:21:17;;;;;;;0.68;0.68;;;9.80;99.90;;;;;;5034010;28;20204;-71
2022/10/10 06:23:44;;;;;;;0.55;0.55;;;9.80;99.90;;;;;;5032578;28;20198;-70
2022/10/10 06:26:10;;;;;;;1.75;1.30;;;9.90;99.90;;;;;;5033917;28;20225;-71
2022/10/10 06:28:36;;;;;;;0.70;0.70;;;9.90;99.90;;;;;;5033718;28;20555;-70
2022/10/10 06:31:05;;;;;;;0.50;0.50;;;9.90;99.90;;;;;;5016057;28;20214;-73
2022/10/10 06:33:31;;;;;;;10.65;0.80;;;10.00;99.90;;;;;;5033642;28;20209;-71
2022/10/10 06:35:58;;;;;;;0.50;0.50;;;10.10;99.90;;;;;;5048116;28;20300;-71
2022/10/10 06:38:26;;;;;;;0.70;0.70;;;10.10;99.90;;;;;;5033637;28;20395;-71
2022/10/10 06:40:52;;;;;;;0.60;0.60;;;10.10;99.90;;;;;;5033703;28;20197;-71
2022/10/10 06:43:17;;;;;;;0.50;0.50;;;10.20;99.90;;;;;;5033633;28;20677;-71
2022/10/10 06:45:45;;;;;;;0.73;0.73;;;10.20;99.90;;;;;;5057955;28;20618;-71
2022/10/10 06:48:12;;;;;;;0.60;0.60;;;10.20;99.90;;;;;;5055517;28;20197;-71
2022/10/10 06:50:38;;;;;;;0.80;0.80;;;10.30;99.90;;;;;;5055343;28;20577;-72
2022/10/10 06:53:04;;;;;;;1.10;1.00;;;10.30;99.90;;;;;;5055535;28;20204;-72
2022/10/10 06:55:30;;;;;;;0.50;0.50;;;10.30;99.90;;;;;;5073302;28;20200;-72
2022/10/10 06:57:56;;;;;;;0.40;0.40;;;10.40;99.90;;;;;;5073294;28;20258;-71
2022/10/10 07:00:22;;;;;;;0.40;0.40;;;10.40;99.90;;;;;;5070230;28;20247;-71
2022/10/10 07:02:48;;;;;;;1.60;1.05;;;10.40;99.90;;;;;;5052904;28;20465;-71
2022/10/10 07:05:16;;;;;;;0.52;0.52;;;10.50;99.90;;;;;;5052717;28;20563;-70
2022/10/10 07:07:42;;;;;;;0.50;0.50;;;10.50;99.90;;;;;;5052567;28;20292;-70
2022/10/10 07:10:13;;;;;;;0.70;0.70;;;10.50;99.90;;;;;;5052823;28;20201;-71
2022/10/10 07:12:39;;;;;;;0.70;0.70;;;10.50;99.90;;;;;;5052604;28;20588;-71
2022/10/10 07:15:06;;;;;;;0.50;0.50;;;10.60;99.90;;;;;;5035002;28;20276;-71
2022/10/10 07:17:31;;;;;;;1.27;1.20;;;10.60;99.90;;;;;;5034231;28;20250;-70
2022/10/10 07:19:57;;;;;;;0.65;0.65;;;10.60;99.90;;;;;;5053028;28;20904;-71
2022/10/10 07:22:23;;;;;;;0.60;0.60;;;10.70;99.90;;;;;;5052314;28;20266;-70
2022/10/10 07:24:49;;;;;;;0.70;0.70;;;10.70;99.90;;;;;;5052758;28;20272;-70
2022/10/10 07:27:14;;;;;;;0.50;0.50;;;10.80;99.90;;;;;;5051533;28;20339;-70
2022/10/10 07:29:40;;;;;;;0.80;0.80;;;10.90;99.90;;;;;;5051226;28;20884;-71
2022/10/10 07:32:06;;;;;;;0.80;0.75;;;10.90;99.90;;;;;;5034765;28;20213;-70
2022/10/10 07:34:32;;;;;;;0.52;0.52;;;11.00;99.90;;;;;;5052471;28;20291;-71
2022/10/10 07:36:57;;;;;;;0.63;0.63;;;11.00;99.90;;;;;;5034699;28;20564;-71
2022/10/10 07:39:24;;;;;;;0.70;0.70;;;11.00;99.90;;;;;;5052084;28;20201;-71
2022/10/10 07:41:50;;;;;;;0.50;0.50;;;11.00;99.90;;;;;;5063263;28;20209;-70
2022/10/10 07:44:17;;;;;;;0.55;0.55;;;10.80;99.90;;;;;;5054399;28;20192;-70
2022/10/10 07:46:44;;;;;;;1.92;1.35;;;10.90;99.90;;;;;;5054234;28;20197;-70
2022/10/10 07:49:10;;;;;;;0.60;0.60;;;10.80;99.90;;;;;;5072254;28;20671;-70
2022/10/10 07:51:37;;;;;;;1.05;1.05;;;10.80;99.90;;;;;;5072109;28;20751;-70
2022/10/10 07:54:04;;;;;;;0.60;0.60;;;10.80;99.90;;;;;;5072183;28;20223;-70
2022/10/10 07:56:29;;;;;;;0.80;0.80;;;10.80;99.90;;;;;;5072028;28;20188;-69
2022/10/10 07:58:55;;;;;;;0.70;0.70;;;10.90;99.90;;;;;;5054196;28;20555;-71
2022/10/10 08:01:21;;;;;;;0.70;0.70;;;10.80;99.90;;;;;;5053778;28;20284;-70
2022/10/10 08:03:47;;;;;;;0.90;0.90;;;10.80;99.90;;;;;;5071941;28;20224;-71
2022/10/10 08:06:15;;;;;;;0.70;0.70;;;11.00;99.90;;;;;;5071905;28;20806;-71
2022/10/10 08:08:43;;;;;;;0.60;0.60;;;11.10;99.90;;;;;;5067076;28;20225;-72
2022/10/10 08:11:09;;;;;;;0.50;0.50;;;11.30;99.90;;;;;;5051508;28;20209;-71
2022/10/10 08:13:36;;;;;;;0.63;0.63;;;11.50;99.90;;;;;;5051331;28;20209;-71
2022/10/10 08:16:03;;;;;;;0.60;0.60;;;11.60;99.90;;;;;;5051822;28;20198;-71
2022/10/10 08:18:29;;;;;;;0.60;0.60;;;11.70;99.90;;;;;;5052024;28;20586;-71
2022/10/10 08:20:59;;;;;;;2.47;1.42;;;11.70;99.90;;;;;;5033926;28;20296;-71
2022/10/10 08:23:24;;;;;;;0.50;0.50;;;11.70;99.90;;;;;;5050102;28;20291;-71
2022/10/10 08:25:50;;;;;;;0.55;0.55;;;11.60;99.90;;;;;;5051580;28;20557;-71
2022/10/10 08:28:16;;;;;;;0.77;0.77;;;11.70;99.90;;;;;;5051755;28;20648;-71
2022/10/10 08:30:41;;;;;;;0.45;0.45;;;11.60;99.90;;;;;;5051222;28;20553;-71
2022/10/10 08:33:07;;;;;;;0.68;0.68;;;11.50;99.90;;;;;;5050303;28;20201;-71
2022/10/10 08:35:39;;;;;;;0.70;0.70;;;11.40;99.90;;;;;;5051384;28;20189;-71
2022/10/10 08:38:05;;;;;;;1.00;0.90;;;11.20;99.90;;;;;;5062540;28;20207;-71
2022/10/10 08:40:32;;;;;;;0.50;0.50;;;11.20;99.90;;;;;;5071160;28;20229;-71
2022/10/10 08:43:03;;;;;;;0.68;0.68;;;11.00;99.90;;;;;;5071364;28;20208;-71
2022/10/10 08:45:31;;;;;;;1.23;1.13;;;11.00;99.90;;;;;;5071169;28;20258;-70
2022/10/10 08:48:01;;;;;;;0.50;0.50;;;10.90;99.90;;;;;;5071266;28;20192;-71
2022/10/10 08:50:33;;;;;;;0.47;0.47;;;10.90;99.90;;;;;;5071213;28;20567;-71
2022/10/10 08:53:07;;;;;;;0.57;0.55;;;10.80;99.90;;;;;;5071404;28;20706;-71
2022/10/10 08:55:37;;;;;;;0.60;0.60;;;10.90;99.90;;;;;;5071219;28;20536;-71
2022/10/10 08:58:30;;;;;;;0.85;0.70;;;10.80;99.90;;;;;;5051276;28;20204;-71
2022/10/10 09:01:02;;;;;;;0.60;0.60;;;10.80;99.90;;;;;;5051177;28;20209;-71
2022/10/10 09:03:47;;;;;;;0.60;0.60;;;10.80;99.90;;;;;;5051233;28;20609;-71
2022/10/10 09:06:31;;;;;;;0.60;0.60;;;10.80;99.90;;;;;;5051170;28;20533;-71
2022/10/10 09:09:09;;;;;;;0.77;0.77;;;10.70;99.90;;;;;;5033025;28;20679;-71
2022/10/10 09:11:53;;;;;;;0.88;0.88;;;10.70;99.90;;;;;;5050818;28;20228;-71
2022/10/10 09:14:37;;;;;;;0.80;0.80;;;10.60;99.90;;;;;;5031254;28;20198;-71
2022/10/10 09:17:24;;;;;;;0.68;0.68;;;10.60;99.90;;;;;;5031222;28;20198;-71
2022/10/10 09:20:27;;;;;;;0.70;0.70;;;10.60;99.90;;;;;;5031092;28;20190;-71
2022/10/10 09:22:57;;;;;;;0.60;0.60;;;10.60;99.90;;;;;;5031018;28;20301;-71
2022/10/10 09:25:37;;;;;;;0.50;0.50;;;10.50;99.90;;;;;;5030811;28;20197;-71
2022/10/10 09:28:05;;;;;;;0.50;0.50;;;10.50;99.90;;;;;;5040053;28;20204;-70
2022/10/10 09:30:36;;;;;;;0.50;0.50;;;10.50;99.90;;;;;;5050793;28;20200;-70
2022/10/10 09:33:16;;;;;;;0.60;0.60;;;10.60;99.90;;;;;;5033100;28;20575;-71
2022/10/10 09:35:43;;;;;;;0.20;0.20;;;10.70;99.90;;;;;;5070647;28;20224;-71
2022/10/10 09:38:14;;;;;;;0.20;0.20;;;10.70;99.90;;;;;;5053032;28;20572;-70
2022/10/10 09:41:33;;;;;;;1.35;0.70;;;10.70;99.90;;;;;;5074088;28;20193;-71
2022/10/10 09:44:04;;;;;;;0.20;0.20;;;10.80;99.90;;;;;;5038511;28;20591;-71
2022/10/10 09:46:30;;;;;;;0.30;0.30;;;10.80;99.90;;;;;;5056731;28;20228;-69
2022/10/10 09:48:56;;;;;;;0.32;0.32;;;10.90;99.90;;;;;;5074696;28;20218;-69
2022/10/10 09:51:22;;;;;;;0.20;0.20;;;10.90;99.90;;;;;;5074446;28;20192;-70
2022/10/10 09:53:49;;;;;;;0.50;0.50;;;11.10;99.90;;;;;;5074341;28;20531;-70
2022/10/10 09:56:28;;;;;;;0.10;0.10;;;11.20;99.90;;;;;;5074448;28;20193;-70
2022/10/10 09:58:55;;;;;;;3.60;0.77;;;11.30;99.90;;;;;;5074397;28;20592;-70
2022/10/10 10:01:25;;;;;;;0.30;0.30;;;11.50;99.90;;;;;;5074080;28;20536;-71
2022/10/10 10:04:06;;;;;;;0.40;0.40;;;11.70;99.90;;;;;;5074245;28;20671;-71
2022/10/10 10:06:32;;;;;;;0.30;0.30;;;11.90;99.90;;;;;;5055793;28;20561;-71
2022/10/10 10:09:04;;;;;;;0.40;0.40;;;12.00;99.90;;;;;;5053639;28;20277;-71
2022/10/10 10:11:35;;;;;;;0.40;0.40;;;12.20;99.90;;;;;;5053735;28;20704;-71
2022/10/10 10:14:02;;;;;;;0.20;0.20;;;12.30;99.90;;;;;;5036056;28;20231;-71
2022/10/10 10:16:37;;;;;;;0.20;0.20;;;12.30;99.90;;;;;;5033994;28;20186;-71
2022/10/10 10:19:03;;;;;;;6.22;0.70;;;12.40;99.90;;;;;;5034133;28;20562;-70
2022/10/10 10:21:29;;;;;;;0.20;0.20;;;12.30;99.90;;;;;;5032509;28;20659;-71
2022/10/10 10:24:20;;;;;;;1.48;0.75;;;12.30;99.90;;;;;;5033947;28;20574;-70
2022/10/10 10:26:47;;;;;;;0.30;0.30;;;12.40;99.90;;;;;;5032743;28;20198;-71
2022/10/10 10:29:33;;;;;;;1.05;0.73;;;12.60;99.90;;;;;;5033887;28;20194;-71
2022/10/10 10:32:17;;;;;;;0.20;0.20;;;12.50;99.90;;;;;;5053971;28;20194;-70
2022/10/10 10:34:55;;;;;;;0.73;0.73;;;12.70;99.90;;;;;;5035721;28;20668;-71
2022/10/10 10:37:43;;;;;;;0.88;0.85;;;12.70;99.90;;;;;;5053585;28;20675;-69
2022/10/10 10:40:32;;;;;;;0.28;0.28;;;12.70;99.90;;;;;;5053598;28;20200;-71
2022/10/10 10:43:32;;;;;;;0.20;0.20;;;12.80;99.90;;;;;;5053447;28;20201;-71
2022/10/10 10:46:15;;;;;;;0.15;0.15;;;12.70;99.90;;;;;;5020901;28;20202;-71
2022/10/10 10:48:52;;;;;;;0.30;0.30;;;12.50;99.90;;;;;;5052911;28;20233;-71
2022/10/10 10:51:30;;;;;;;0.20;0.20;;;12.40;99.90;;;;;;5053700;28;20656;-71
2022/10/10 10:54:14;;;;;;;1.23;0.25;;;12.30;99.90;;;;;;5034093;28;20197;-70
2022/10/10 10:57:01;;;;;;;0.38;0.38;;;12.20;99.90;;;;;;5053257;28;21221;-71
2022/10/10 10:59:31;;;;;;;1.77;0.52;;;12.10;99.90;;;;;;5053007;28;20197;-70
2022/10/10 11:02:14;;;;;;;0.30;0.30;;;12.00;99.90;;;;;;5052868;28;20217;-71
2022/10/10 11:05:04;;;;;;;0.22;0.22;;;11.90;99.90;;;;;;5052818;28;20197;-70
2022/10/10 11:08:01;;;;;;;0.20;0.20;;;11.80;99.90;;;;;;5052965;28;20186;-70
2022/10/10 11:10:48;;;;;;;0.38;0.38;;;11.90;99.90;;;;;;5035882;28;20213;-70
2022/10/10 11:13:47;;;;;;;0.20;0.20;;;11.90;99.90;;;;;;5052917;28;20212;-70
2022/10/10 11:16:27;;;;;;;0.30;0.30;;;11.80;99.90;;;;;;5052982;28;20231;-70
2022/10/10 11:19:26;;;;;;;0.20;0.20;;;11.80;99.90;;;;;;5052915;28;20189;-70
2022/10/10 11:21:55;;;;;;;0.45;0.45;;;11.90;99.90;;;;;;5026902;28;20217;-71
2022/10/10 11:24:29;;;;;;;0.30;0.30;;;12.00;99.90;;;;;;5052660;28;20216;-70
2022/10/10 11:27:01;;;;;;;0.25;0.25;;;12.50;99.90;;;;;;5064553;28;20279;-71
2022/10/10 11:29:36;;;;;;;0.30;0.30;;;13.00;99.90;;;;;;5072394;28;20287;-70
2022/10/10 11:32:11;;;;;;;0.70;0.65;;;13.20;99.90;;;;;;5072892;28;20192;-71
2022/10/10 11:35:01;;;;;;;0.20;0.20;;;13.10;99.90;;;;;;5072466;28;20199;-70
2022/10/10 11:37:30;;;;;;;0.20;0.20;;;13.00;99.90;;;;;;5072353;28;20242;-71
2022/10/10 11:40:02;;;;;;;0.45;0.45;;;12.80;99.90;;;;;;5072524;28;20208;-72
2022/10/10 11:42:54;;;;;;;0.25;0.25;;;12.80;99.90;;;;;;5072137;28;20212;-71
2022/10/10 11:45:38;;;;;;;0.20;0.20;;;12.80;99.90;;;;;;5054275;28;20228;-71
2022/10/10 11:48:56;;;;;;;38.28;0.52;;;13.00;99.90;;;;;;5054721;28;20200;-71
2022/10/10 11:51:40;;;;;;;0.10;0.10;;;13.10;99.90;;;;;;5068841;28;20573;-71
2022/10/10 11:54:26;;;;;;;0.20;0.20;;;13.00;99.90;;;;;;5054302;28;20227;-70
2022/10/10 11:56:57;;;;;;;0.73;0.65;;;12.80;99.90;;;;;;5071978;28;20185;-70
2022/10/10 11:59:40;;;;;;;0.20;0.20;;;12.80;99.90;;;;;;5050692;28;20227;-70
2022/10/10 12:02:31;;;;;;;0.75;0.52;;;12.60;99.90;;;;;;5050920;28;20209;-70
2022/10/10 12:04:57;;;;;;;0.40;0.40;;;12.50;99.90;;;;;;5051827;28;20190;-70
2022/10/10 12:07:27;;;;;;;0.17;0.17;;;12.50;99.90;;;;;;5051836;28;20251;-70
2022/10/10 12:10:04;;;;;;;0.20;0.20;;;12.50;99.90;;;;;;5051821;28;20227;-69
2022/10/10 12:12:40;;;;;;;0.20;0.20;;;12.40;99.90;;;;;;5051339;28;20231;-71
2022/10/10 12:15:09;;;;;;;0.30;0.30;;;12.30;99.90;;;;;;5051742;28;20197;-70
2022/10/10 12:17:43;;;;;;;0.32;0.32;;;12.30;99.90;;;;;;5051449;28;20197;-70
2022/10/10 12:20:23;;;;;;;0.30;0.30;;;12.20;99.90;;;;;;5051694;28;20201;-70
2022/10/10 12:23:18;;;;;;;1.17;0.95;;;12.20;99.90;;;;;;5059200;28;20208;-71
2022/10/10 12:25:46;;;;;;;0.43;0.40;;;12.30;99.90;;;;;;5053858;28;20250;-70
2022/10/10 12:28:12;;;;;;;0.20;0.20;;;12.20;99.90;;;;;;5071637;28;20292;-71
2022/10/10 12:30:58;;;;;;;0.52;0.52;;;12.20;99.90;;;;;;5071444;28;20279;-70
2022/10/10 12:33:32;;;;;;;0.20;0.20;;;12.30;99.90;;;;;;5037485;28;20221;-71
2022/10/10 12:36:17;;;;;;;0.28;0.28;;;12.30;99.90;;;;;;5050903;28;20204;-71
2022/10/10 12:39:01;;;;;;;0.28;0.28;;;12.40;99.90;;;;;;5033454;28;20571;-70
2022/10/10 12:41:46;;;;;;;0.20;0.20;;;12.30;99.90;;;;;;5051226;28;20193;-70
2022/10/10 12:44:18;;;;;;;0.20;0.20;;;12.30;99.90;;;;;;5033541;28;20201;-70
2022/10/10 12:46:44;;;;;;;0.55;0.50;;;12.20;99.90;;;;;;5033453;28;20223;-70
2022/10/10 12:49:20;;;;;;;0.30;0.30;;;12.20;99.90;;;;;;5051438;28;20706;-69
2022/10/10 12:52:11;;;;;;;0.20;0.20;;;12.20;99.90;;;;;;5051340;28;20193;-70
2022/10/10 12:54:43;;;;;;;0.20;0.20;;;12.20;99.90;;;;;;5050882;28;20206;-69
2022/10/10 12:57:31;;;;;;;0.47;0.43;;;12.20;99.90;;;;;;5049970;28;20297;-70
2022/10/10 13:00:04;;;;;;;11.80;1.13;;;12.10;99.90;;;;;;5051185;28;20589;-70
2022/10/10 13:02:30;;;;;;;0.25;0.25;;;12.10;99.90;;;;;;5050950;28;20750;-70
2022/10/10 13:05:00;;;;;;;0.13;0.13;;;12.10;99.90;;;;;;5050992;28;20489;-70
2022/10/10 13:07:25;;;;;;;0.20;0.20;;;12.10;99.90;;;;;;5050929;28;20574;-70
2022/10/10 13:09:53;;;;;;;0.20;0.20;;;12.20;99.90;;;;;;5051019;28;20190;-70